KPNE

Northeast Philadelphia Airport

Philadelphia, Pennsylvania, USA
METAR KPNE 201123Z 09012KT 6SM -RA BR BKN004 OVC008 05/03 A2936 RMK AO2 PRESFR P0003 T00500033
Observed Flight Rules
Jan-20 @ 11:23 UTC (20 minutes ago) Instrument Flight Rules
Wind Visibility Clouds Conditions
90° at 12 knots 6 miles
  • Broken at 400' AGL
  • Overcast at 800' AGL
  • Light Rain
  • Mist
Temperatures Readings Precipitation
Current 5°C / 41°F
Dewpoint 3°C / 37°F
Humidity 87%
Altimeter 29.36" Hg
Pressure 994.22 hPa
Elevation 28
Current Rain 0.03
METAR KPNE 201123Z 09012KT 6SM -RA BR BKN004 OVC008 05/03 A2936 RMK AO2 PRESFR P0003 T00500033
Observed Flight Rules
Jan-20 @ 11:23 UTC
(20 minutes ago)
LIFR
Wind Visibility
90° at 12 knots 6 miles
Clouds
  • Broken at 400' AGL
  • Overcast at 800' AGL
Conditions
  • Light Rain
  • Mist
Temperature Dewpoint
5°C / 41°F 3°C / 37°F
Humidity Altimeter Pressure
87% 29.36" Hg 994.22 hPa
Current Rain
0.03